Time;durP1;ratioP1;P1;durP2;ratioP2;P2;SDS_P1;SDS_P2;PMS_P1;PMS_P2;Temp;Humidity;BMP_temperature;BMP_pressure;BME280_temperature;BME280_humidity;BME280_pressure;Samples;Min_cycle;Max_cycle;Signal;HPM_P1;HPM_P2
2022/07/09 00:01:35;;;;;;;7.32;3.50;;;16.00;99.90;;;;;;4958133;28;20077;-73
2022/07/09 00:04:01;;;;;;;4.88;3.03;;;16.00;99.90;;;;;;4976217;28;20109;-74
2022/07/09 00:06:26;;;;;;;7.07;3.20;;;16.00;99.90;;;;;;4972715;28;20062;-74
2022/07/09 00:08:52;;;;;;;10.15;3.72;;;16.00;99.90;;;;;;4976037;28;20062;-75
2022/07/09 00:11:18;;;;;;;7.82;3.08;;;16.00;99.90;;;;;;4976123;28;20439;-74
2022/07/09 00:13:43;;;;;;;7.78;3.88;;;16.10;99.90;;;;;;4976018;28;20023;-74
2022/07/09 00:16:09;;;;;;;6.82;3.45;;;16.10;99.90;;;;;;4974646;28;20023;-74
2022/07/09 00:18:34;;;;;;;11.13;3.55;;;16.10;99.90;;;;;;4975934;28;20058;-74
2022/07/09 00:21:00;;;;;;;9.82;3.40;;;16.10;99.90;;;;;;4975853;28;20055;-74
2022/07/09 00:23:25;;;;;;;9.40;3.63;;;16.20;99.90;;;;;;4975773;28;20034;-74
2022/07/09 00:25:52;;;;;;;9.02;2.90;;;16.20;99.90;;;;;;4975705;28;20027;-74
2022/07/09 00:28:18;;;;;;;7.68;3.15;;;16.20;99.90;;;;;;4975842;28;20026;-74
2022/07/09 00:30:43;;;;;;;6.65;2.70;;;16.20;99.90;;;;;;4975790;28;20018;-74
2022/07/09 00:33:09;;;;;;;7.07;2.42;;;16.30;99.90;;;;;;4967944;28;20062;-73
2022/07/09 00:35:35;;;;;;;9.60;2.80;;;16.30;99.90;;;;;;4971255;28;20029;-74
2022/07/09 00:38:02;;;;;;;6.28;2.22;;;16.30;99.90;;;;;;4975788;28;20166;-74
2022/07/09 00:40:27;;;;;;;6.43;2.53;;;16.30;99.90;;;;;;4972765;28;20106;-74
2022/07/09 00:42:53;;;;;;;6.57;2.40;;;16.40;99.90;;;;;;4965091;28;20039;-74
2022/07/09 00:45:18;;;;;;;7.85;2.55;;;16.40;99.90;;;;;;4975495;28;20038;-74
2022/07/09 00:47:44;;;;;;;5.85;2.72;;;16.40;99.90;;;;;;4975458;28;20048;-74
2022/07/09 00:50:10;;;;;;;7.13;3.42;;;16.40;99.90;;;;;;4975285;28;20023;-74
2022/07/09 00:52:37;;;;;;;7.38;3.13;;;16.50;99.90;;;;;;4975407;28;20031;-74
2022/07/09 00:55:04;;;;;;;6.10;2.60;;;16.50;99.90;;;;;;4975191;28;20030;-74
2022/07/09 00:57:30;;;;;;;5.70;2.50;;;16.50;99.90;;;;;;4975300;28;20079;-74
2022/07/09 00:59:57;;;;;;;5.35;2.50;;;16.60;99.90;;;;;;4975189;28;20031;-74
2022/07/09 01:02:23;;;;;;;5.50;3.00;;;16.60;99.90;;;;;;4975480;28;20058;-74
2022/07/09 01:04:48;;;;;;;6.97;3.15;;;16.60;99.90;;;;;;4974944;28;20053;-74
2022/07/09 01:07:14;;;;;;;7.15;3.92;;;16.70;99.90;;;;;;4962890;28;20031;-74
2022/07/09 01:09:40;;;;;;;7.75;3.60;;;16.70;99.90;;;;;;4955661;28;20097;-74
2022/07/09 01:12:07;;;;;;;7.38;4.18;;;16.70;99.90;;;;;;4955932;28;20023;-73
2022/07/09 01:14:32;;;;;;;7.90;5.18;;;16.70;99.90;;;;;;4955617;28;20023;-74
2022/07/09 01:17:04;;;;;;;7.72;4.20;;;16.70;99.90;;;;;;4967915;28;20463;-74
2022/07/09 01:19:31;;;;;;;9.52;3.60;;;16.60;99.90;;;;;;4974732;28;20026;-74
2022/07/09 01:21:57;;;;;;;8.65;3.97;;;16.70;99.90;;;;;;4974758;28;20030;-74
2022/07/09 01:24:23;;;;;;;8.98;4.03;;;16.60;99.90;;;;;;4974594;28;20035;-74
2022/07/09 01:26:49;;;;;;;7.38;3.33;;;16.60;99.90;;;;;;4974241;28;20062;-74
2022/07/09 01:29:15;;;;;;;5.25;3.08;;;16.50;99.90;;;;;;4974539;28;20060;-74
2022/07/09 01:31:40;;;;;;;9.27;3.95;;;16.40;99.90;;;;;;4974591;28;20119;-74
2022/07/09 01:34:06;;;;;;;5.65;2.97;;;16.40;99.90;;;;;;4974271;28;20065;-74
2022/07/09 01:36:33;;;;;;;8.98;2.78;;;16.30;99.90;;;;;;4974508;28;20031;-74
2022/07/09 01:38:59;;;;;;;4.90;2.53;;;16.30;99.90;;;;;;4974807;28;20031;-75
2022/07/09 01:41:25;;;;;;;7.47;2.70;;;16.40;99.90;;;;;;4961788;28;20530;-74
2022/07/09 01:43:50;;;;;;;6.45;2.65;;;16.30;99.90;;;;;;4974185;28;20019;-74
2022/07/09 01:46:16;;;;;;;4.15;2.50;;;16.30;99.90;;;;;;4974236;28;20114;-73
2022/07/09 01:48:42;;;;;;;5.57;2.60;;;16.30;99.90;;;;;;4974269;28;20110;-74
2022/07/09 01:51:09;;;;;;;7.40;2.60;;;16.30;99.90;;;;;;4974209;28;20379;-74
2022/07/09 01:53:35;;;;;;;4.05;2.47;;;16.30;99.90;;;;;;4974213;28;20702;-73
2022/07/09 01:56:05;;;;;;;3.83;2.65;;;16.40;99.90;;;;;;4974171;28;20066;-73
2022/07/09 01:58:31;;;;;;;5.85;2.60;;;16.40;99.90;;;;;;4974164;28;20046;-73
2022/07/09 02:00:57;;;;;;;5.13;2.70;;;16.50;99.90;;;;;;4974064;28;20076;-74
2022/07/09 02:03:22;;;;;;;4.95;2.45;;;16.40;99.90;;;;;;4974035;28;20141;-74
2022/07/09 02:05:48;;;;;;;5.28;2.50;;;16.40;99.90;;;;;;4974017;28;20022;-74
2022/07/09 02:08:14;;;;;;;5.35;2.20;;;16.40;99.90;;;;;;4973979;28;20455;-74
2022/07/09 02:10:39;;;;;;;5.85;2.90;;;16.40;99.90;;;;;;4973946;28;20019;-74
2022/07/09 02:13:05;;;;;;;6.97;3.20;;;16.50;99.90;;;;;;4974292;28;20023;-74
2022/07/09 02:15:31;;;;;;;7.18;3.75;;;16.40;99.90;;;;;;4973918;28;20050;-74
2022/07/09 02:17:57;;;;;;;9.18;4.70;;;16.40;99.90;;;;;;4973814;28;20102;-74
2022/07/09 02:20:22;;;;;;;8.13;3.80;;;16.40;99.90;;;;;;4960694;28;20525;-74
2022/07/09 02:22:48;;;;;;;10.35;4.88;;;16.30;99.90;;;;;;4973623;28;20030;-73
2022/07/09 02:25:13;;;;;;;7.82;4.13;;;16.40;99.90;;;;;;4973631;28;20035;-74
2022/07/09 02:27:39;;;;;;;5.97;3.80;;;16.30;99.90;;;;;;4973637;28;20031;-74
2022/07/09 02:30:05;;;;;;;7.75;4.30;;;16.40;99.90;;;;;;4973695;28;20030;-74
2022/07/09 02:32:31;;;;;;;10.43;4.20;;;16.40;99.90;;;;;;4973448;28;20051;-74
2022/07/09 02:34:56;;;;;;;8.20;4.03;;;16.40;99.90;;;;;;4973543;28;20055;-74
2022/07/09 02:37:22;;;;;;;5.63;3.45;;;16.40;99.90;;;;;;4973566;28;20529;-74
2022/07/09 02:39:48;;;;;;;6.22;3.45;;;16.30;99.90;;;;;;4972625;28;20034;-74
2022/07/09 02:42:13;;;;;;;5.10;2.85;;;16.30;99.90;;;;;;4973526;28;20034;-74
2022/07/09 02:44:40;;;;;;;5.90;3.63;;;16.20;99.90;;;;;;4973573;28;20034;-74
2022/07/09 02:47:05;;;;;;;5.22;3.10;;;16.20;99.90;;;;;;4973609;28;20027;-74
2022/07/09 02:49:31;;;;;;;6.95;2.92;;;16.20;99.90;;;;;;4973621;28;20027;-74
2022/07/09 02:51:59;;;;;;;7.20;3.00;;;16.20;99.90;;;;;;4973413;28;20035;-74
2022/07/09 02:54:24;;;;;;;5.20;2.80;;;16.00;99.90;;;;;;4973786;28;20023;-74
2022/07/09 02:56:50;;;;;;;6.15;3.08;;;15.90;99.90;;;;;;4973431;28;20042;-74
2022/07/09 02:59:15;;;;;;;6.78;2.72;;;15.80;99.90;;;;;;4973514;28;20026;-74
2022/07/09 03:01:41;;;;;;;6.18;2.40;;;15.70;99.90;;;;;;4973054;28;20015;-74
2022/07/09 03:04:06;;;;;;;6.07;2.58;;;15.70;99.90;;;;;;4954074;28;20019;-74
2022/07/09 03:06:32;;;;;;;3.67;2.58;;;15.80;99.90;;;;;;4954260;28;20055;-74
2022/07/09 03:08:58;;;;;;;2.92;2.47;;;15.80;99.90;;;;;;4973332;28;20710;-74
2022/07/09 03:11:23;;;;;;;4.10;2.60;;;15.80;99.90;;;;;;4973255;28;20035;-74
2022/07/09 03:13:49;;;;;;;5.93;2.42;;;15.70;99.90;;;;;;4973280;28;20038;-74
2022/07/09 03:16:14;;;;;;;6.90;2.20;;;15.70;99.90;;;;;;4973193;28;20042;-74
2022/07/09 03:18:40;;;;;;;5.47;2.50;;;15.70;99.90;;;;;;4973287;28;20019;-74
2022/07/09 03:21:08;;;;;;;5.93;2.40;;;15.80;99.90;;;;;;4973132;28;20056;-74
2022/07/09 03:23:33;;;;;;;6.38;2.63;;;15.70;99.90;;;;;;4973420;28;20024;-74
2022/07/09 03:25:59;;;;;;;6.38;2.50;;;15.60;99.90;;;;;;4973034;28;20048;-74
2022/07/09 03:28:25;;;;;;;5.00;2.60;;;15.60;99.90;;;;;;4972967;28;20026;-74
2022/07/09 03:30:50;;;;;;;4.15;2.15;;;15.60;99.90;;;;;;4972870;28;20082;-74
2022/07/09 03:33:16;;;;;;;3.90;2.20;;;15.60;99.90;;;;;;4972588;28;20042;-74
2022/07/09 03:35:41;;;;;;;4.22;2.42;;;15.60;99.90;;;;;;4973102;28;20026;-74
2022/07/09 03:38:07;;;;;;;3.30;2.28;;;15.70;99.90;;;;;;4972933;28;20086;-74
2022/07/09 03:40:33;;;;;;;5.78;2.50;;;15.70;99.90;;;;;;4973043;28;20030;-74
2022/07/09 03:42:58;;;;;;;5.53;2.20;;;15.80;99.90;;;;;;4972944;28;20029;-74
2022/07/09 03:45:24;;;;;;;5.07;2.22;;;15.80;99.90;;;;;;4967186;28;20038;-74
2022/07/09 03:47:50;;;;;;;3.20;2.60;;;15.80;99.90;;;;;;4972900;28;20463;-74
2022/07/09 03:50:15;;;;;;;3.42;2.28;;;15.80;99.90;;;;;;4974169;28;20027;-74
2022/07/09 03:52:41;;;;;;;4.40;2.60;;;15.90;99.90;;;;;;4976377;28;20023;-74
2022/07/09 03:55:07;;;;;;;3.70;2.20;;;16.00;99.90;;;;;;4976385;28;20089;-74
2022/07/09 03:57:33;;;;;;;2.70;2.03;;;15.90;99.90;;;;;;4975072;28;20030;-74
2022/07/09 03:59:58;;;;;;;7.50;2.30;;;15.80;99.90;;;;;;4976269;28;20057;-74
2022/07/09 04:02:24;;;;;;;6.18;2.22;;;15.70;99.90;;;;;;4976241;28;20069;-74
2022/07/09 04:04:50;;;;;;;3.30;2.25;;;15.80;99.90;;;;;;4976195;28;20102;-74
2022/07/09 04:07:15;;;;;;;4.28;2.22;;;15.80;99.90;;;;;;4976124;28;20360;-74
2022/07/09 04:09:42;;;;;;;3.22;2.03;;;15.80;99.90;;;;;;4975919;28;20023;-74
2022/07/09 04:12:08;;;;;;;5.15;2.25;;;15.90;99.90;;;;;;4976020;28;20034;-74
2022/07/09 04:14:34;;;;;;;4.97;2.65;;;15.80;99.90;;;;;;4976047;28;20037;-74
2022/07/09 04:16:59;;;;;;;2.70;2.03;;;15.80;99.90;;;;;;4975892;28;20062;-74
2022/07/09 04:19:25;;;;;;;4.10;2.00;;;15.90;99.90;;;;;;4976000;28;20073;-74
2022/07/09 04:21:50;;;;;;;3.55;2.20;;;15.90;99.90;;;;;;4975827;28;20030;-74
2022/07/09 04:24:16;;;;;;;3.70;1.90;;;16.00;99.90;;;;;;4967834;28;20028;-74
2022/07/09 04:26:43;;;;;;;3.20;2.30;;;16.00;99.90;;;;;;4957884;28;20379;-75
2022/07/09 04:29:08;;;;;;;3.08;1.75;;;16.10;99.90;;;;;;4974249;28;20030;-74
2022/07/09 04:31:34;;;;;;;5.30;2.05;;;16.10;99.90;;;;;;4975604;28;20023;-74
2022/07/09 04:33:59;;;;;;;4.28;1.98;;;16.10;99.90;;;;;;4975043;28;20109;-74
2022/07/09 04:36:27;;;;;;;4.75;2.33;;;16.20;99.90;;;;;;4975685;28;20035;-75
2022/07/09 04:38:53;;;;;;;6.88;2.60;;;16.40;99.90;;;;;;4975760;28;20494;-74
2022/07/09 04:41:19;;;;;;;5.10;2.17;;;16.50;99.90;;;;;;4975544;28;20086;-74
2022/07/09 04:43:44;;;;;;;6.93;2.38;;;16.60;99.00;;;;;;4975441;28;20526;-74
2022/07/09 04:46:10;;;;;;;3.60;2.20;;;16.70;93.90;;;;;;4975349;28;20394;-75
2022/07/09 04:48:35;;;;;;;6.30;2.25;;;16.70;97.00;;;;;;4975492;28;20109;-75
2022/07/09 04:51:01;;;;;;;4.05;1.85;;;16.80;88.80;;;;;;4975317;28;20059;-75
2022/07/09 04:53:26;;;;;;;4.07;2.45;;;16.90;89.90;;;;;;4975211;28;20470;-75
2022/07/09 04:55:52;;;;;;;5.20;2.42;;;17.00;74.90;;;;;;4971337;28;20039;-75
2022/07/09 04:58:18;;;;;;;4.47;2.00;;;17.20;66.00;;;;;;4968195;28;20034;-75
2022/07/09 05:00:43;;;;;;;1.80;1.70;;;17.30;52.00;;;;;;4971491;28;20031;-74
2022/07/09 05:03:09;;;;;;;3.65;2.30;;;17.40;41.30;;;;;;4955460;28;20544;-74
2022/07/09 05:05:35;;;;;;;4.05;2.25;;;17.50;31.30;;;;;;4975038;28;20582;-75
2022/07/09 05:08:01;;;;;;;5.80;2.90;;;17.60;27.20;;;;;;4975144;28;20023;-75
2022/07/09 05:10:26;;;;;;;4.65;2.28;;;17.60;28.80;;;;;;4974898;28;20029;-75
2022/07/09 05:12:52;;;;;;;3.42;2.03;;;17.80;13.90;;;;;;4974912;28;20023;-75
2022/07/09 05:15:17;;;;;;;6.20;2.10;;;17.80;8.20;;;;;;4974731;28;20054;-75
2022/07/09 05:17:44;;;;;;;2.78;2.40;;;18.00;5.30;;;;;;4974837;28;20382;-75
2022/07/09 05:20:09;;;;;;;4.30;2.10;;;18.00;6.40;;;;;;4974942;28;20014;-75
2022/07/09 05:22:36;;;;;;;4.78;2.20;;;18.00;1.00;;;;;;4974833;28;20067;-75
2022/07/09 05:25:03;;;;;;;6.30;2.30;;;18.10;1.00;;;;;;4974530;28;20106;-75
2022/07/09 05:27:28;;;;;;;3.83;2.22;;;18.10;1.00;;;;;;4974649;28;20031;-75
2022/07/09 05:29:54;;;;;;;6.18;2.33;;;18.10;1.00;;;;;;4974454;28;20474;-75
2022/07/09 05:32:20;;;;;;;3.47;1.70;;;18.20;8.80;;;;;;4963835;28;20031;-75
2022/07/09 05:34:46;;;;;;;4.32;1.92;;;18.20;1.00;;;;;;4954873;28;20385;-75
2022/07/09 05:37:12;;;;;;;3.97;1.85;;;18.20;1.00;;;;;;4965320;28;20054;-75
2022/07/09 05:39:37;;;;;;;6.60;2.20;;;18.20;1.00;;;;;;4974275;28;20489;-75
2022/07/09 05:42:04;;;;;;;5.57;2.10;;;18.30;1.00;;;;;;4974410;28;20423;-75
2022/07/09 05:44:30;;;;;;;5.65;2.13;;;18.20;1.00;;;;;;4974623;28;20026;-75
2022/07/09 05:46:56;;;;;;;2.50;1.67;;;18.30;2.70;;;;;;4974187;28;20026;-75
2022/07/09 05:49:21;;;;;;;5.90;1.60;;;18.30;1.00;;;;;;4974104;28;20023;-75
2022/07/09 05:51:47;;;;;;;3.80;1.88;;;18.40;1.00;;;;;;4964074;28;20131;-75
2022/07/09 05:54:12;;;;;;;3.28;1.70;;;18.50;1.00;;;;;;4954845;28;20423;-75
2022/07/09 05:56:38;;;;;;;3.42;2.05;;;18.50;1.00;;;;;;4960742;28;20030;-75
2022/07/09 05:59:04;;;;;;;2.75;1.80;;;18.70;1.00;;;;;;4966891;28;20062;-75
2022/07/09 06:01:30;;;;;;;2.88;1.38;;;18.80;1.00;;;;;;4953531;29;20055;-75
2022/07/09 06:03:56;;;;;;;4.13;1.52;;;19.10;1.00;;;;;;4954595;28;20027;-75
2022/07/09 06:06:22;;;;;;;4.22;1.50;;;19.00;1.00;;;;;;4954727;28;20365;-75
2022/07/09 06:08:47;;;;;;;5.30;1.30;;;19.00;1.00;;;;;;4967188;28;20027;-75
2022/07/09 06:11:13;;;;;;;3.70;1.20;;;19.00;1.00;;;;;;4973979;28;20027;-75
2022/07/09 06:13:39;;;;;;;3.80;1.48;;;18.90;1.00;;;;;;4973932;28;20027;-75
2022/07/09 06:16:05;;;;;;;4.60;1.88;;;18.80;1.00;;;;;;4973650;28;20042;-75
2022/07/09 06:18:31;;;;;;;4.18;2.10;;;19.00;1.00;;;;;;4967349;28;20061;-75
2022/07/09 06:20:57;;;;;;;5.70;1.88;;;19.20;1.00;;;;;;4973696;28;20093;-75
2022/07/09 06:23:23;;;;;;;2.42;1.30;;;19.40;1.00;;;;;;4974004;28;20053;-75
2022/07/09 06:25:48;;;;;;;2.95;1.50;;;19.40;1.00;;;;;;4973471;28;20046;-75
2022/07/09 06:28:14;;;;;;;5.72;1.55;;;19.50;1.00;;;;;;4973717;28;20045;-75
2022/07/09 06:30:40;;;;;;;4.40;1.65;;;19.60;1.00;;;;;;4973609;28;20078;-75
2022/07/09 06:33:05;;;;;;;3.95;1.63;;;20.00;1.00;;;;;;4973388;28;20174;-75
2022/07/09 06:35:31;;;;;;;3.85;1.42;;;20.00;1.00;;;;;;4973373;28;20023;-75
2022/07/09 06:37:58;;;;;;;5.32;1.23;;;20.30;1.00;;;;;;4973432;28;20030;-75
2022/07/09 06:40:23;;;;;;;4.80;1.48;;;20.50;1.00;;;;;;4964243;28;20024;-75
2022/07/09 06:42:49;;;;;;;6.82;1.88;;;20.60;1.00;;;;;;4954032;28;20038;-75
2022/07/09 06:45:15;;;;;;;4.40;1.35;;;20.80;99.90;;;;;;4966049;28;20027;-75
2022/07/09 06:47:40;;;;;;;4.15;1.20;;;21.00;99.90;;;;;;4973370;28;20042;-75
2022/07/09 06:50:06;;;;;;;3.55;1.38;;;20.40;99.90;;;;;;4973135;28;20093;-75
2022/07/09 06:52:32;;;;;;;5.18;1.45;;;20.20;99.90;;;;;;4973455;28;20069;-75
2022/07/09 06:54:57;;;;;;;3.67;1.50;;;20.00;1.00;;;;;;4973285;28;20031;-75
2022/07/09 06:57:23;;;;;;;2.53;1.10;;;20.10;1.00;;;;;;4973306;28;20102;-75
2022/07/09 06:59:49;;;;;;;3.80;1.20;;;20.10;99.90;;;;;;4973082;28;20077;-75
2022/07/09 07:02:16;;;;;;;6.03;1.30;;;20.00;99.90;;;;;;4973280;28;20358;-75
2022/07/09 07:04:42;;;;;;;6.70;1.35;;;20.20;99.90;;;;;;4973290;28;20448;-75
2022/07/09 07:07:07;;;;;;;6.28;1.00;;;20.30;99.90;;;;;;4972951;28;20089;-75
2022/07/09 07:09:33;;;;;;;3.10;1.05;;;20.40;99.90;;;;;;4973327;28;20114;-75
2022/07/09 07:11:58;;;;;;;4.35;1.20;;;20.10;99.90;;;;;;4973059;28;20070;-76
2022/07/09 07:14:25;;;;;;;4.00;1.02;;;20.00;99.90;;;;;;4972992;28;20109;-75
2022/07/09 07:16:53;;;;;;;4.32;1.05;;;19.90;99.90;;;;;;4973112;28;20058;-75
2022/07/09 07:19:22;;;;;;;3.65;1.30;;;20.10;99.90;;;;;;4973227;28;20026;-76
2022/07/09 07:21:48;;;;;;;3.65;1.15;;;20.20;99.90;;;;;;4973115;28;20518;-76
2022/07/09 07:24:14;;;;;;;6.35;1.45;;;20.30;99.90;;;;;;4973158;28;20118;-75
2022/07/09 07:26:39;;;;;;;4.75;1.55;;;20.30;99.90;;;;;;4976268;28;20106;-76
2022/07/09 07:29:05;;;;;;;3.47;1.20;;;20.10;99.90;;;;;;4971975;28;20509;-75
2022/07/09 07:31:31;;;;;;;4.13;1.13;;;20.40;99.90;;;;;;4976687;28;20018;-76
2022/07/09 07:33:57;;;;;;;2.92;1.10;;;20.80;99.90;;;;;;4976413;28;20062;-76
2022/07/09 07:36:23;;;;;;;3.92;1.50;;;21.40;99.90;;;;;;4976667;28;20027;-75
2022/07/09 07:38:49;;;;;;;3.90;0.77;;;21.70;99.90;;;;;;4976646;28;20022;-75
2022/07/09 07:41:18;;;;;;;5.85;1.27;;;21.90;99.90;;;;;;4973990;28;20598;-75
2022/07/09 07:43:43;;;;;;;4.97;1.10;;;21.60;99.90;;;;;;4963746;28;20034;-76
2022/07/09 07:46:09;;;;;;;3.22;1.42;;;21.90;99.90;;;;;;4961033;28;20027;-75
2022/07/09 07:48:40;;;;;;;4.53;1.10;;;22.40;99.90;;;;;;4968288;28;20027;-76
2022/07/09 07:51:06;;;;;;;3.00;1.10;;;22.60;99.90;;;;;;4976486;28;20352;-75
2022/07/09 07:53:32;;;;;;;6.50;1.00;;;22.70;99.90;;;;;;4976584;28;20492;-77
2022/07/09 07:56:00;;;;;;;1.70;1.00;;;23.50;99.90;;;;;;4976387;28;20395;-76
2022/07/09 07:58:26;;;;;;;5.82;0.85;;;23.10;99.90;;;;;;4976285;28;20031;-76
2022/07/09 08:00:52;;;;;;;4.55;1.10;;;23.10;99.90;;;;;;4976212;28;20033;-76
2022/07/09 08:03:17;;;;;;;1.65;0.80;;;24.00;99.90;;;;;;4976246;28;20683;-76
2022/07/09 08:05:43;;;;;;;6.95;1.42;;;25.60;99.90;;;;;;4975030;28;20023;-76
2022/07/09 08:08:08;;;;;;;1.73;0.85;;;26.00;99.90;;;;;;4970800;28;20101;-76
2022/07/09 08:10:34;;;;;;;3.35;1.30;;;25.60;99.90;;;;;;4969365;28;20023;-76
2022/07/09 08:12:59;;;;;;;5.35;1.35;;;26.30;99.90;;;;;;4966548;28;20027;-77
2022/07/09 08:15:25;;;;;;;2.15;0.98;;;26.40;99.90;;;;;;4965753;28;20027;-76
2022/07/09 08:17:51;;;;;;;2.33;0.88;;;24.90;99.90;;;;;;4973649;28;20030;-76
2022/07/09 08:20:16;;;;;;;4.43;1.17;;;27.70;99.90;;;;;;4975635;28;20507;-76
2022/07/09 08:22:42;;;;;;;5.82;1.33;;;25.70;99.90;;;;;;4975779;28;20125;-76
2022/07/09 08:25:08;;;;;;;2.97;1.42;;;29.50;99.90;;;;;;4975753;28;20035;-76
2022/07/09 08:27:33;;;;;;;3.15;1.05;;;26.70;99.90;;;;;;4983225;28;20030;-76
2022/07/09 08:29:59;;;;;;;4.35;1.10;;;25.50;99.90;;;;;;4968256;28;20029;-76
2022/07/09 08:32:24;;;;;;;4.13;1.35;;;25.90;99.90;;;;;;4962470;28;20126;-76
2022/07/09 08:34:50;;;;;;;2.03;0.90;;;24.90;99.90;;;;;;4975398;28;20487;-76
2022/07/09 08:37:15;;;;;;;6.13;1.05;;;26.20;99.90;;;;;;4970803;28;20062;-76
2022/07/09 08:39:41;;;;;;;5.47;0.82;;;26.00;99.90;;;;;;4956350;28;20016;-76
2022/07/09 08:42:10;;;;;;;3.65;1.10;;;24.90;99.90;;;;;;4956346;28;20027;-76
2022/07/09 08:44:39;;;;;;;1.85;1.00;;;25.70;99.90;;;;;;4975647;28;20023;-75
2022/07/09 08:47:05;;;;;;;1.95;0.90;;;24.90;99.90;;;;;;4975483;28;20027;-75
2022/07/09 08:49:32;;;;;;;4.70;0.95;;;23.90;99.90;;;;;;4962553;28;20035;-76
2022/07/09 08:51:57;;;;;;;5.38;1.58;;;25.20;99.90;;;;;;4975274;28;20088;-76
2022/07/09 08:54:24;;;;;;;5.78;1.05;;;25.30;99.90;;;;;;4972989;28;20031;-76
2022/07/09 08:56:53;;;;;;;5.40;1.23;;;24.80;99.90;;;;;;4956462;29;20035;-76
2022/07/09 08:59:18;;;;;;;4.45;1.02;;;24.40;99.90;;;;;;4971369;28;20026;-76
2022/07/09 09:01:44;;;;;;;5.70;1.27;;;24.40;99.90;;;;;;4965978;28;20170;-76
2022/07/09 09:04:10;;;;;;;4.70;1.45;;;24.70;99.90;;;;;;4971252;28;20023;-77
2022/07/09 09:06:42;;;;;;;2.90;1.00;;;25.50;99.90;;;;;;4974970;28;20113;-77
2022/07/09 09:09:08;;;;;;;4.30;1.10;;;25.70;99.90;;;;;;4975094;28;20063;-77
2022/07/09 09:11:37;;;;;;;4.35;1.02;;;24.80;99.90;;;;;;4971910;28;20053;-75
2022/07/09 09:14:03;;;;;;;6.28;1.10;;;24.00;99.90;;;;;;4963955;28;20024;-76
2022/07/09 09:16:29;;;;;;;7.10;1.30;;;24.10;99.90;;;;;;4962053;28;20051;-75
2022/07/09 09:18:56;;;;;;;3.33;1.15;;;27.30;99.90;;;;;;4974806;28;20106;-75
2022/07/09 09:21:23;;;;;;;1.13;0.65;;;28.30;99.90;;;;;;4959972;28;20030;-76
2022/07/09 09:23:58;;;;;;;2.13;0.80;;;26.20;99.90;;;;;;4960321;28;20063;-75
2022/07/09 09:26:27;;;;;;;2.85;0.98;;;24.70;99.90;;;;;;4975011;28;20041;-76
2022/07/09 09:29:01;;;;;;;10.52;1.10;;;24.90;99.90;;;;;;4974688;28;20039;-77
2022/07/09 09:31:31;;;;;;;2.85;0.95;;;24.70;99.90;;;;;;4975041;28;20023;-76
2022/07/09 09:34:17;;;;;;;2.75;1.33;;;24.60;99.90;;;;;;4969974;28;20066;-76
2022/07/09 09:36:50;;;;;;;3.00;1.02;;;24.30;99.90;;;;;;4955435;29;20038;-77
2022/07/09 09:39:24;;;;;;;2.88;0.95;;;24.60;99.90;;;;;;4987657;28;20026;-76
2022/07/09 09:41:57;;;;;;;3.90;1.52;;;25.00;99.90;;;;;;4984130;28;20037;-76
2022/07/09 09:44:26;;;;;;;6.60;1.45;;;24.30;99.90;;;;;;4968171;28;20054;-76
2022/07/09 09:46:52;;;;;;;7.07;1.58;;;23.40;99.90;;;;;;4971031;28;20031;-75
2022/07/09 09:49:18;;;;;;;3.97;1.05;;;23.00;99.90;;;;;;4965862;28;20038;-75
2022/07/09 09:51:50;;;;;;;5.57;1.20;;;23.40;99.90;;;;;;4955247;28;20024;-75
2022/07/09 09:54:18;;;;;;;4.22;0.82;;;24.50;99.90;;;;;;4966269;28;20028;-75
2022/07/09 09:56:44;;;;;;;5.13;1.08;;;26.80;99.90;;;;;;4961552;28;20057;-75
2022/07/09 09:59:11;;;;;;;2.60;0.90;;;25.70;99.90;;;;;;4963400;28;20027;-76
2022/07/09 10:01:39;;;;;;;4.50;1.20;;;24.30;99.90;;;;;;4968547;28;20019;-76
2022/07/09 10:04:06;;;;;;;3.70;1.20;;;23.70;99.90;;;;;;4964787;28;20031;-76
2022/07/09 10:06:33;;;;;;;5.25;1.70;;;23.70;99.90;;;;;;4967197;28;20031;-75
2022/07/09 10:09:02;;;;;;;2.55;0.98;;;24.70;99.90;;;;;;4958007;28;20027;-76
2022/07/09 10:11:41;;;;;;;5.60;1.30;;;24.40;99.90;;;;;;4966487;28;20487;-76
2022/07/09 10:14:07;;;;;;;5.82;1.52;;;25.80;99.90;;;;;;4959869;28;20031;-76
2022/07/09 10:16:34;;;;;;;1.63;0.95;;;24.30;99.90;;;;;;4973189;28;20078;-75
2022/07/09 10:19:00;;;;;;;5.95;1.35;;;22.70;99.90;;;;;;4973678;28;20066;-76
2022/07/09 10:21:37;;;;;;;3.78;0.82;;;22.00;99.90;;;;;;4973624;28;20043;-76
2022/07/09 10:24:05;;;;;;;3.95;1.00;;;21.40;99.90;;;;;;4973688;28;20101;-75
2022/07/09 10:26:46;;;;;;;2.83;1.10;;;21.10;99.90;;;;;;4971539;28;20026;-76
2022/07/09 10:29:23;;;;;;;5.28;1.48;;;20.80;99.90;;;;;;4969888;28;20463;-76
2022/07/09 10:31:49;;;;;;;3.22;0.80;;;21.00;99.90;;;;;;4973724;28;20038;-76
2022/07/09 10:34:35;;;;;;;7.38;1.23;;;21.20;99.90;;;;;;4972223;28;20074;-77
2022/07/09 10:37:02;;;;;;;3.20;0.82;;;21.00;99.90;;;;;;4973884;28;20423;-77
2022/07/09 10:39:29;;;;;;;4.30;1.00;;;20.80;99.90;;;;;;4968808;28;20042;-76
2022/07/09 10:42:18;;;;;;;3.10;0.93;;;21.10;99.90;;;;;;4954186;28;20020;-77
2022/07/09 10:44:45;;;;;;;3.20;0.43;;;22.10;99.90;;;;;;4954576;28;20050;-76
2022/07/09 10:47:11;;;;;;;5.47;0.90;;;22.20;99.90;;;;;;4969013;28;20027;-77
2022/07/09 10:49:38;;;;;;;3.83;1.10;;;23.40;99.90;;;;;;4973675;28;20073;-76
2022/07/09 10:52:05;;;;;;;3.30;0.70;;;24.00;99.90;;;;;;4965585;28;20023;-77
2022/07/09 10:54:31;;;;;;;2.72;0.55;;;24.60;99.90;;;;;;4962014;28;20027;-77
2022/07/09 10:56:57;;;;;;;2.95;0.77;;;24.90;99.90;;;;;;4970801;28;20033;-77
2022/07/09 10:59:24;;;;;;;2.33;0.95;;;25.20;99.90;;;;;;4973408;28;20019;-77
2022/07/09 11:01:52;;;;;;;3.45;0.68;;;23.60;99.90;;;;;;4977344;28;20105;-77
2022/07/09 11:04:24;;;;;;;4.45;0.70;;;22.90;99.90;;;;;;4977718;28;20375;-77
2022/07/09 11:06:50;;;;;;;2.15;0.68;;;22.50;99.90;;;;;;4977419;28;20085;-77
2022/07/09 11:09:16;;;;;;;2.15;0.82;;;22.30;99.90;;;;;;4977230;28;20031;-76
2022/07/09 11:11:42;;;;;;;2.33;0.77;;;22.50;99.90;;;;;;4977322;28;20375;-77
2022/07/09 11:14:09;;;;;;;3.83;0.80;;;22.40;99.90;;;;;;4977028;28;20050;-77
2022/07/09 11:16:39;;;;;;;2.60;0.98;;;22.20;99.90;;;;;;4976935;28;20033;-77
2022/07/09 11:19:19;;;;;;;1.63;0.60;;;24.50;99.90;;;;;;4977159;28;20019;-77
2022/07/09 11:21:44;;;;;;;3.10;0.68;;;24.70;99.90;;;;;;4977211;28;20158;-77
2022/07/09 11:24:22;;;;;;;1.73;0.50;;;24.00;99.90;;;;;;4977305;28;20103;-77
2022/07/09 11:26:47;;;;;;;1.25;0.50;;;23.30;99.90;;;;;;4964239;28;20063;-77
2022/07/09 11:29:13;;;;;;;2.65;0.63;;;23.30;99.90;;;;;;4957657;28;20055;-77
2022/07/09 11:31:52;;;;;;;1.42;0.52;;;23.00;99.90;;;;;;4959042;28;20360;-77
2022/07/09 11:34:19;;;;;;;3.60;0.75;;;23.00;99.90;;;;;;4976526;28;20046;-77
2022/07/09 11:36:47;;;;;;;1.85;0.50;;;23.20;99.90;;;;;;4976770;28;20031;-77
2022/07/09 11:39:33;;;;;;;2.60;0.95;;;23.00;99.90;;;;;;4976714;28;20015;-77
2022/07/09 11:42:01;;;;;;;2.72;0.57;;;23.30;99.90;;;;;;4965421;28;20030;-77
2022/07/09 11:44:28;;;;;;;3.05;1.50;;;23.10;99.90;;;;;;4963642;28;20029;-77
2022/07/09 11:47:10;;;;;;;1.15;0.38;;;22.50;99.90;;;;;;4976536;28;20081;-77
2022/07/09 11:49:40;;;;;;;3.47;0.57;;;22.30;99.90;;;;;;4976643;28;20027;-77
2022/07/09 11:52:17;;;;;;;3.30;0.43;;;22.50;99.90;;;;;;4976638;28;20074;-76
2022/07/09 11:55:04;;;;;;;2.65;0.77;;;22.30;99.90;;;;;;4976542;28;20355;-77
2022/07/09 11:57:31;;;;;;;3.25;0.55;;;21.90;99.90;;;;;;4976456;28;20019;-77
2022/07/09 11:59:57;;;;;;;3.15;0.50;;;21.60;99.90;;;;;;4972427;28;20074;-77
2022/07/09 12:02:29;;;;;;;4.22;0.70;;;21.40;99.90;;;;;;4976520;28;20034;-77
2022/07/09 12:04:56;;;;;;;1.67;0.65;;;21.00;99.90;;;;;;4976493;28;20089;-77
2022/07/09 12:07:21;;;;;;;2.58;0.77;;;21.20;99.90;;;;;;4976112;28;20034;-77
2022/07/09 12:10:00;;;;;;;2.45;0.50;;;21.60;99.90;;;;;;4976303;28;20027;-77
2022/07/09 12:12:27;;;;;;;2.60;0.60;;;21.40;99.90;;;;;;4975903;28;20031;-77
2022/07/09 12:14:54;;;;;;;4.72;0.73;;;21.70;99.90;;;;;;4976181;28;20248;-77
2022/07/09 12:17:26;;;;;;;1.98;0.68;;;22.10;99.90;;;;;;4976433;28;20023;-77
2022/07/09 12:19:52;;;;;;;4.55;1.38;;;21.40;99.90;;;;;;4976300;28;20022;-77
2022/07/09 12:22:18;;;;;;;1.40;0.60;;;21.90;99.90;;;;;;4976136;28;20042;-77
2022/07/09 12:24:44;;;;;;;2.75;0.80;;;22.00;99.90;;;;;;4976171;28;20555;-77
2022/07/09 12:27:10;;;;;;;4.38;0.60;;;21.80;99.90;;;;;;4972952;28;20103;-77
2022/07/09 12:29:36;;;;;;;2.25;0.60;;;22.10;99.90;;;;;;4968859;28;20035;-77
2022/07/09 12:32:01;;;;;;;3.33;0.70;;;21.50;99.90;;;;;;4975915;28;20023;-77
2022/07/09 12:34:27;;;;;;;2.63;0.43;;;21.90;99.90;;;;;;4975694;28;20066;-77
2022/07/09 12:36:53;;;;;;;2.30;0.60;;;21.20;99.90;;;;;;4975699;28;20105;-76
2022/07/09 12:39:18;;;;;;;2.47;0.55;;;21.60;99.90;;;;;;4975827;28;20027;-77
2022/07/09 12:41:44;;;;;;;1.92;0.90;;;22.10;99.90;;;;;;4975790;28;20027;-76
2022/07/09 12:44:09;;;;;;;5.97;1.13;;;21.80;99.90;;;;;;4975495;28;20439;-76
2022/07/09 12:46:36;;;;;;;2.80;0.43;;;21.80;99.90;;;;;;4975313;28;20442;-77